createdAt,value
2023-03-30T00:01:40.033Z,11.80
2023-03-30T00:04:11.468Z,11.67
2023-03-30T00:06:42.428Z,11.77
2023-03-30T00:09:12.030Z,13.27
2023-03-30T00:11:43.319Z,12.30
2023-03-30T00:14:12.530Z,13.60
2023-03-30T00:16:59.994Z,12.37
2023-03-30T00:19:32.933Z,12.43
2023-03-30T00:22:01.984Z,11.13
2023-03-30T00:24:30.632Z,12.30
2023-03-30T00:27:00.866Z,12.77
2023-03-30T00:29:29.614Z,12.80
2023-03-30T00:31:58.271Z,12.43
2023-03-30T00:34:27.013Z,14.03
2023-03-30T00:36:56.671Z,12.63
2023-03-30T00:39:26.734Z,13.67
2023-03-30T00:41:55.398Z,12.90
2023-03-30T00:45:01.423Z,13.57
2023-03-30T00:47:32.196Z,12.57
2023-03-30T00:50:01.040Z,12.10
2023-03-30T00:52:29.693Z,12.13
2023-03-30T00:54:59.075Z,12.67
2023-03-30T00:57:29.095Z,13.93
2023-03-30T00:59:57.833Z,11.87
2023-03-30T01:02:26.744Z,11.13
2023-03-30T01:04:58.931Z,12.50
2023-03-30T01:07:27.954Z,11.90
2023-03-30T01:09:56.552Z,11.50
2023-03-30T01:12:25.687Z,11.77
2023-03-30T01:14:54.400Z,12.00
2023-03-30T01:17:32.945Z,11.90
2023-03-30T01:20:58.505Z,12.40
2023-03-30T01:24:17.895Z,11.70
2023-03-30T01:26:51.786Z,12.70
2023-03-30T01:29:48.657Z,12.73
2023-03-30T01:32:51.919Z,13.93
2023-03-30T01:35:58.221Z,14.03
2023-03-30T01:38:47.420Z,13.17
2023-03-30T01:41:30.090Z,14.03
2023-03-30T01:44:04.319Z,12.07
2023-03-30T01:46:40.353Z,11.63
2023-03-30T01:49:15.349Z,13.17
2023-03-30T01:51:50.031Z,12.63
2023-03-30T01:54:23.589Z,13.80
2023-03-30T01:56:57.326Z,11.00
2023-03-30T01:59:29.953Z,13.70
2023-03-30T02:02:04.207Z,11.57
2023-03-30T02:04:38.847Z,11.37
2023-03-30T02:07:11.750Z,12.10
2023-03-30T02:09:42.675Z,12.13
2023-03-30T02:12:14.320Z,12.30
2023-03-30T02:14:43.632Z,11.80
2023-03-30T02:17:18.301Z,12.27
2023-03-30T02:19:47.605Z,12.03
2023-03-30T02:22:17.744Z,13.17
2023-03-30T02:24:48.415Z,11.73
2023-03-30T02:27:18.845Z,13.37
2023-03-30T02:29:48.392Z,12.10
2023-03-30T02:32:19.516Z,12.60
2023-03-30T02:35:09.103Z,11.57
2023-03-30T02:37:53.647Z,12.57
2023-03-30T02:40:34.086Z,11.17
2023-03-30T02:43:21.483Z,10.93
2023-03-30T02:45:54.540Z,11.87
2023-03-30T02:48:32.740Z,12.13
2023-03-30T02:51:13.431Z,11.57
2023-03-30T02:53:45.484Z,12.20
2023-03-30T02:56:22.287Z,12.13
2023-03-30T02:58:57.500Z,11.27
2023-03-30T03:01:33.912Z,11.10
2023-03-30T03:04:05.461Z,12.20
2023-03-30T03:06:34.381Z,11.23
2023-03-30T03:09:03.449Z,11.73
2023-03-30T03:11:32.387Z,11.73
2023-03-30T03:14:02.649Z,11.17
2023-03-30T03:16:31.768Z,11.87
2023-03-30T03:19:00.628Z,12.20
2023-03-30T03:21:30.620Z,12.80
2023-03-30T03:23:59.357Z,11.50
2023-03-30T03:26:28.243Z,13.97
2023-03-30T03:28:56.910Z,12.10
2023-03-30T03:31:27.408Z,13.33
2023-03-30T03:33:56.090Z,11.10
2023-03-30T03:36:24.677Z,13.00
2023-03-30T03:38:53.414Z,12.13
2023-03-30T03:41:21.972Z,12.73
2023-03-30T03:43:51.100Z,11.83
2023-03-30T03:46:19.824Z,13.63
2023-03-30T03:48:49.889Z,10.63
2023-03-30T03:51:18.505Z,13.13
2023-03-30T03:53:49.725Z,12.90
2023-03-30T03:56:18.413Z,14.07
2023-03-30T03:58:47.108Z,11.40
2023-03-30T04:01:15.847Z,11.57
2023-03-30T04:03:44.507Z,11.97
2023-03-30T04:06:14.731Z,13.33
2023-03-30T04:08:43.331Z,11.07
2023-03-30T04:11:12.988Z,12.40
2023-03-30T04:13:41.575Z,13.67
2023-03-30T04:16:10.538Z,10.93
2023-03-30T04:18:41.723Z,13.30
2023-03-30T04:21:13.138Z,10.73
2023-03-30T04:23:45.951Z,12.07
2023-03-30T04:26:15.660Z,10.53
2023-03-30T04:28:44.339Z,10.93
2023-03-30T04:31:13.184Z,10.97
2023-03-30T04:33:51.894Z,10.63
2023-03-30T04:36:21.476Z,12.40
2023-03-30T04:38:59.978Z,12.30
2023-03-30T04:41:36.880Z,11.50
2023-03-30T04:44:07.406Z,10.87
2023-03-30T04:46:36.594Z,13.87
2023-03-30T04:49:08.332Z,10.63
2023-03-30T04:51:37.433Z,11.70
2023-03-30T04:54:07.926Z,11.40
2023-03-30T04:56:36.572Z,11.30
2023-03-30T04:59:08.144Z,12.30
2023-03-30T05:01:37.041Z,11.90
2023-03-30T05:04:05.764Z,10.77
2023-03-30T05:06:34.617Z,11.47
2023-03-30T05:09:03.896Z,11.23
2023-03-30T05:11:33.904Z,10.93
2023-03-30T05:14:02.560Z,10.87
2023-03-30T05:16:31.233Z,11.50
2023-03-30T05:18:59.927Z,12.37
2023-03-30T05:21:28.515Z,12.97
2023-03-30T05:23:57.053Z,12.30
2023-03-30T05:26:26.305Z,14.17
2023-03-30T05:28:56.577Z,12.43
2023-03-30T05:31:25.280Z,14.67
2023-03-30T05:33:54.311Z,11.63
2023-03-30T05:36:22.988Z,14.30
2023-03-30T05:38:51.756Z,12.67
2023-03-30T05:41:20.624Z,12.10
2023-03-30T05:43:49.286Z,12.03
2023-03-30T05:46:19.607Z,11.83
2023-03-30T05:48:48.339Z,11.07
2023-03-30T05:51:16.993Z,11.80
2023-03-30T05:53:46.276Z,11.43
2023-03-30T05:56:14.829Z,10.87
2023-03-30T05:58:43.411Z,10.40
2023-03-30T06:01:13.533Z,10.70
2023-03-30T06:03:43.649Z,12.03
2023-03-30T06:06:12.406Z,12.20
2023-03-30T06:08:41.975Z,11.60
2023-03-30T06:11:11.424Z,12.00
2023-03-30T06:13:40.064Z,11.83
2023-03-30T06:16:09.294Z,11.67
2023-03-30T06:18:37.986Z,11.50
2023-03-30T06:21:08.915Z,11.40
2023-03-30T06:23:38.089Z,11.83
2023-03-30T06:26:07.758Z,11.93
2023-03-30T06:28:36.676Z,14.50
2023-03-30T06:31:09.602Z,11.60
2023-03-30T06:33:41.065Z,12.07
2023-03-30T06:36:13.853Z,12.77
2023-03-30T06:38:43.647Z,11.73
2023-03-30T06:41:12.871Z,11.97
2023-03-30T06:43:41.768Z,12.83
2023-03-30T06:46:11.434Z,11.87
2023-03-30T06:48:40.178Z,12.90
2023-03-30T06:51:09.143Z,12.60
2023-03-30T06:53:39.163Z,11.53
2023-03-30T06:56:08.786Z,11.73
2023-03-30T06:58:40.567Z,12.27
2023-03-30T07:01:13.839Z,13.43
2023-03-30T07:03:42.875Z,15.07
2023-03-30T07:06:12.469Z,11.57
2023-03-30T07:08:42.505Z,11.37
2023-03-30T07:11:11.114Z,10.73
2023-03-30T07:13:40.148Z,11.70
2023-03-30T07:16:09.464Z,12.60
2023-03-30T07:18:38.148Z,12.33
2023-03-30T07:21:07.514Z,12.53
2023-03-30T07:23:37.643Z,13.27
2023-03-30T07:26:07.917Z,11.30
2023-03-30T07:28:38.308Z,12.50
2023-03-30T07:31:08.355Z,12.57
2023-03-30T07:33:38.250Z,12.87
2023-03-30T07:36:08.845Z,12.40
2023-03-30T07:38:37.527Z,14.57
2023-03-30T07:41:12.637Z,13.40
2023-03-30T07:43:41.951Z,14.20
2023-03-30T07:46:12.414Z,13.17
2023-03-30T07:48:41.348Z,11.30
2023-03-30T07:51:12.217Z,14.63
2023-03-30T07:53:42.163Z,13.53
2023-03-30T07:56:12.136Z,12.50
2023-03-30T07:58:40.888Z,11.57
2023-03-30T08:01:09.563Z,13.27
2023-03-30T08:03:39.397Z,14.43
2023-03-30T08:06:08.774Z,13.03
2023-03-30T08:08:38.965Z,14.00
2023-03-30T08:11:09.164Z,13.03
2023-03-30T08:13:39.146Z,15.90
2023-03-30T08:16:09.178Z,13.47
2023-03-30T08:18:38.203Z,17.17
2023-03-30T08:21:07.177Z,14.07
2023-03-30T08:23:36.178Z,12.37
2023-03-30T08:26:04.975Z,12.37
2023-03-30T08:28:34.137Z,13.07
2023-03-30T08:31:10.869Z,12.70
2023-03-30T08:33:40.068Z,14.87
2023-03-30T08:36:08.918Z,13.30
2023-03-30T08:38:37.845Z,13.50
2023-03-30T08:41:33.080Z,15.17
2023-03-30T08:44:03.537Z,14.53
2023-03-30T08:46:34.332Z,14.97
2023-03-30T08:49:12.354Z,13.33
2023-03-30T08:51:42.530Z,13.90
2023-03-30T08:54:16.732Z,13.93
2023-03-30T08:56:53.273Z,13.40
2023-03-30T08:59:31.152Z,16.70
2023-03-30T09:02:08.539Z,14.30
2023-03-30T09:04:49.597Z,13.83
2023-03-30T09:07:21.624Z,13.87
2023-03-30T09:09:52.263Z,13.07
2023-03-30T09:12:30.188Z,14.07
2023-03-30T09:15:03.988Z,12.83
2023-03-30T09:17:41.609Z,16.40
2023-03-30T09:20:16.240Z,14.00
2023-03-30T09:22:46.703Z,14.93
2023-03-30T09:25:21.577Z,13.90
2023-03-30T09:28:02.814Z,14.03
2023-03-30T09:30:38.703Z,14.10
2023-03-30T09:33:18.231Z,14.37
2023-03-30T09:35:58.999Z,13.67
2023-03-30T09:38:27.676Z,14.20
2023-03-30T09:41:07.912Z,14.00
2023-03-30T09:43:43.649Z,16.70
2023-03-30T09:46:15.469Z,13.57
2023-03-30T09:48:47.558Z,13.73
2023-03-30T09:51:22.108Z,13.80
2023-03-30T09:53:53.711Z,14.20
2023-03-30T09:56:28.579Z,13.83
2023-03-30T09:58:57.486Z,13.63
2023-03-30T10:01:38.686Z,15.00
2023-03-30T10:04:12.600Z,13.97
2023-03-30T10:06:47.782Z,16.30
2023-03-30T10:09:18.814Z,14.07
2023-03-30T10:11:50.951Z,14.23
2023-03-30T10:14:29.778Z,16.13
2023-03-30T10:16:59.750Z,14.47
2023-03-30T10:19:30.896Z,15.10
2023-03-30T10:22:04.385Z,15.33
2023-03-30T10:24:34.222Z,16.10
2023-03-30T10:27:11.282Z,15.57
2023-03-30T10:29:45.568Z,18.67
2023-03-30T10:32:18.371Z,14.93
2023-03-30T10:34:53.535Z,14.77
2023-03-30T10:37:28.089Z,16.40
2023-03-30T10:39:59.270Z,14.90
2023-03-30T10:42:31.013Z,16.80
2023-03-30T10:45:01.796Z,16.27
2023-03-30T10:47:46.644Z,16.73
2023-03-30T10:50:28.142Z,15.43
2023-03-30T10:53:09.254Z,16.30
2023-03-30T10:55:44.039Z,15.80
2023-03-30T10:58:27.260Z,16.43
2023-03-30T11:01:10.935Z,14.67
2023-03-30T11:03:43.553Z,17.97
2023-03-30T11:06:19.867Z,16.13
2023-03-30T11:08:51.556Z,15.10
2023-03-30T11:11:23.159Z,15.33
2023-03-30T11:13:55.654Z,15.43
2023-03-30T11:16:32.989Z,16.17
2023-03-30T11:19:05.468Z,15.17
2023-03-30T11:21:43.586Z,17.00
2023-03-30T11:24:16.189Z,15.80
2023-03-30T11:26:50.797Z,17.70
2023-03-30T11:29:31.912Z,15.63
2023-03-30T11:32:15.553Z,14.73
2023-03-30T11:34:54.509Z,17.77
2023-03-30T11:37:30.708Z,14.83
2023-03-30T11:40:09.635Z,14.70
2023-03-30T11:42:39.032Z,17.20
2023-03-30T11:45:21.466Z,16.77
2023-03-30T11:48:03.052Z,16.20
2023-03-30T11:50:48.109Z,18.40
2023-03-30T11:53:31.312Z,16.53
2023-03-30T11:56:07.942Z,14.30
2023-03-30T11:58:38.476Z,16.27
2023-03-30T12:01:31.264Z,15.07
2023-03-30T12:04:07.242Z,14.73
2023-03-30T12:06:39.345Z,15.63
2023-03-30T12:09:25.653Z,15.27
2023-03-30T12:11:58.667Z,14.00
2023-03-30T12:14:51.726Z,14.67
2023-03-30T12:17:29.215Z,15.13
2023-03-30T12:20:04.465Z,14.13
2023-03-30T12:22:39.130Z,14.87
2023-03-30T12:25:22.806Z,14.53
2023-03-30T12:28:04.558Z,15.57
2023-03-30T12:30:44.921Z,13.80
2023-03-30T12:33:18.460Z,14.47
2023-03-30T12:35:54.492Z,15.27
2023-03-30T12:38:25.752Z,17.47
2023-03-30T12:41:18.340Z,14.50
2023-03-30T12:44:16.000Z,15.33
2023-03-30T12:46:58.381Z,17.97
2023-03-30T12:49:34.593Z,15.33
2023-03-30T12:52:13.727Z,14.80
2023-03-30T12:55:02.144Z,17.17
2023-03-30T12:57:45.571Z,18.60
2023-03-30T13:00:37.263Z,15.47
2023-03-30T13:03:40.325Z,15.73
2023-03-30T13:06:17.929Z,16.07
2023-03-30T13:08:46.500Z,17.70
2023-03-30T13:11:17.414Z,16.97
2023-03-30T13:13:51.318Z,18.63
2023-03-30T13:16:57.224Z,16.63
2023-03-30T13:19:27.893Z,16.37
2023-03-30T13:21:59.480Z,15.43
2023-03-30T13:24:37.937Z,15.30
2023-03-30T13:27:24.383Z,16.37
2023-03-30T13:29:57.634Z,15.67
2023-03-30T13:32:55.722Z,14.93
2023-03-30T13:35:35.843Z,14.87
2023-03-30T13:38:44.373Z,14.40
2023-03-30T13:41:28.434Z,14.03
2023-03-30T13:44:07.942Z,14.00
2023-03-30T13:46:46.601Z,16.87
2023-03-30T13:49:32.414Z,14.87
2023-03-30T13:52:05.413Z,14.57
2023-03-30T13:54:35.642Z,15.90
2023-03-30T13:57:10.302Z,13.43
2023-03-30T13:59:42.900Z,16.63
2023-03-30T14:02:17.382Z,14.73
2023-03-30T14:04:46.237Z,13.93
2023-03-30T14:07:17.345Z,14.37
2023-03-30T14:10:04.709Z,12.87
2023-03-30T14:12:35.314Z,15.07
2023-03-30T14:15:17.555Z,15.13
2023-03-30T14:17:52.279Z,16.37
2023-03-30T14:20:46.566Z,13.67
2023-03-30T14:23:19.016Z,14.73
2023-03-30T14:25:49.714Z,15.43
2023-03-30T14:28:20.499Z,15.20
2023-03-30T14:30:54.889Z,13.33
2023-03-30T14:33:26.251Z,13.40
2023-03-30T14:35:56.741Z,14.57
2023-03-30T14:38:28.359Z,14.73
2023-03-30T14:40:57.604Z,15.10
2023-03-30T14:43:29.671Z,15.13
2023-03-30T14:46:00.644Z,13.57
2023-03-30T14:48:32.308Z,14.13
2023-03-30T14:51:02.794Z,14.23
2023-03-30T14:53:32.344Z,15.13
2023-03-30T14:56:02.578Z,13.53
2023-03-30T14:58:50.613Z,14.53
2023-03-30T15:01:24.851Z,14.20
2023-03-30T15:03:55.149Z,13.63
2023-03-30T15:06:26.996Z,14.03
2023-03-30T15:09:01.577Z,14.03
2023-03-30T15:11:32.531Z,14.03
2023-03-30T15:14:05.111Z,13.37
2023-03-30T15:16:35.945Z,15.60
2023-03-30T15:19:08.183Z,14.67
2023-03-30T15:21:38.170Z,16.80
2023-03-30T15:24:08.742Z,14.27
2023-03-30T15:26:41.427Z,17.33
2023-03-30T15:29:12.122Z,14.53
2023-03-30T15:31:40.913Z,16.47
2023-03-30T15:34:17.058Z,14.73
2023-03-30T15:36:46.374Z,17.97
2023-03-30T15:39:22.327Z,15.53
2023-03-30T15:42:00.875Z,15.83
2023-03-30T15:44:30.001Z,17.03
2023-03-30T15:47:01.785Z,15.10
2023-03-30T15:49:40.094Z,15.40
2023-03-30T15:52:14.229Z,15.27
2023-03-30T15:54:46.204Z,17.57
2023-03-30T15:57:20.710Z,14.80
2023-03-30T15:59:53.349Z,14.63
2023-03-30T16:02:23.648Z,14.87
2023-03-30T16:04:54.459Z,15.53
2023-03-30T16:07:25.697Z,14.60
2023-03-30T16:09:54.357Z,13.77
2023-03-30T16:12:26.329Z,14.43
2023-03-30T16:14:55.435Z,15.00
2023-03-30T16:17:26.239Z,14.70
2023-03-30T16:19:56.301Z,14.03
2023-03-30T16:22:27.015Z,14.03
2023-03-30T16:24:55.869Z,14.13
2023-03-30T16:27:24.590Z,14.80
2023-03-30T16:29:53.224Z,15.00
2023-03-30T16:32:21.943Z,14.67
2023-03-30T16:34:52.320Z,17.57
2023-03-30T16:37:22.292Z,16.90
2023-03-30T16:39:50.926Z,16.40
2023-03-30T16:42:20.315Z,14.37
2023-03-30T16:44:48.956Z,16.17
2023-03-30T16:47:20.284Z,13.33
2023-03-30T16:49:48.994Z,16.13
2023-03-30T16:52:17.580Z,13.47
2023-03-30T16:54:47.511Z,17.00
2023-03-30T16:57:16.141Z,14.17
2023-03-30T16:59:44.940Z,15.53
2023-03-30T17:02:17.501Z,14.97
2023-03-30T17:04:47.532Z,15.57
2023-03-30T17:07:16.317Z,14.60
2023-03-30T17:09:44.875Z,16.23
2023-03-30T17:12:14.816Z,13.70
2023-03-30T17:14:43.511Z,15.77
2023-03-30T17:17:12.623Z,13.30
2023-03-30T17:19:41.244Z,15.07
2023-03-30T17:22:09.837Z,11.70
2023-03-30T17:24:38.518Z,16.00
2023-03-30T17:27:07.354Z,13.60
2023-03-30T17:29:37.324Z,13.83
2023-03-30T17:32:07.351Z,12.83
2023-03-30T17:34:35.937Z,13.43
2023-03-30T17:37:04.547Z,12.47
2023-03-30T17:39:33.921Z,14.03
2023-03-30T17:42:02.649Z,13.30
2023-03-30T17:44:31.210Z,14.83
2023-03-30T17:47:01.855Z,13.43
2023-03-30T17:49:30.679Z,13.93
2023-03-30T17:51:59.452Z,12.10
2023-03-30T17:54:29.665Z,12.63
2023-03-30T17:56:58.239Z,12.43
2023-03-30T17:59:27.031Z,12.47
2023-03-30T18:01:55.677Z,12.33
2023-03-30T18:04:25.715Z,12.43
2023-03-30T18:06:54.282Z,12.67
2023-03-30T18:09:22.888Z,12.97
2023-03-30T18:11:51.485Z,14.47
2023-03-30T18:14:20.141Z,13.07
2023-03-30T18:16:50.328Z,12.93
2023-03-30T18:19:19.121Z,12.77
2023-03-30T18:21:49.104Z,14.90
2023-03-30T18:24:17.823Z,12.00
2023-03-30T18:26:46.475Z,15.30
2023-03-30T18:29:20.227Z,13.07
2023-03-30T18:31:49.186Z,14.30
2023-03-30T18:34:19.635Z,12.77
2023-03-30T18:37:08.286Z,11.80
2023-03-30T18:39:36.917Z,13.90
2023-03-30T18:42:05.777Z,11.73
2023-03-30T18:44:34.439Z,11.77
2023-03-30T18:47:03.100Z,11.70
2023-03-30T18:49:32.011Z,12.53
2023-03-30T18:52:00.921Z,11.47
2023-03-30T18:54:31.668Z,11.30
2023-03-30T18:57:00.813Z,11.67
2023-03-30T18:59:30.109Z,11.97
2023-03-30T19:01:58.801Z,11.60
2023-03-30T19:04:28.323Z,11.90
2023-03-30T19:06:57.536Z,12.37
2023-03-30T19:09:40.207Z,11.87
2023-03-30T19:12:14.735Z,11.57
2023-03-30T19:14:44.319Z,12.83
2023-03-30T19:17:15.714Z,11.93
2023-03-30T19:19:44.394Z,11.27
2023-03-30T19:22:13.615Z,11.70
2023-03-30T19:24:42.261Z,13.90
2023-03-30T19:27:12.334Z,11.40
2023-03-30T19:29:41.522Z,13.53
2023-03-30T19:32:11.780Z,10.93
2023-03-30T19:34:41.488Z,12.03
2023-03-30T19:37:10.115Z,11.00
2023-03-30T19:39:38.735Z,12.57
2023-03-30T19:42:09.239Z,12.83
2023-03-30T19:44:39.455Z,12.17
2023-03-30T19:47:08.286Z,12.00
2023-03-30T19:49:36.840Z,13.70
2023-03-30T19:52:05.536Z,11.80
2023-03-30T19:54:34.111Z,11.83
2023-03-30T19:57:03.153Z,12.93
2023-03-30T19:59:32.810Z,10.80
2023-03-30T20:02:02.913Z,12.30
2023-03-30T20:04:31.810Z,12.80
2023-03-30T20:07:01.651Z,12.90
2023-03-30T20:09:30.649Z,12.90
2023-03-30T20:11:59.675Z,12.80
2023-03-30T20:14:28.283Z,12.40
2023-03-30T20:16:57.044Z,11.33
2023-03-30T20:19:29.678Z,13.13
2023-03-30T20:22:00.197Z,12.23
2023-03-30T20:24:28.868Z,12.70
2023-03-30T20:26:57.521Z,13.00
2023-03-30T20:29:26.249Z,11.43
2023-03-30T20:31:54.892Z,11.13
2023-03-30T20:34:24.283Z,11.37
2023-03-30T20:36:54.249Z,11.23
2023-03-30T20:39:27.159Z,11.23
2023-03-30T20:41:58.216Z,10.83
2023-03-30T20:44:31.825Z,10.57
2023-03-30T20:47:01.742Z,11.00
2023-03-30T20:49:32.161Z,11.37
2023-03-30T20:52:02.595Z,11.23
2023-03-30T20:54:32.124Z,13.63
2023-03-30T20:57:01.278Z,11.17
2023-03-30T20:59:29.987Z,12.50
2023-03-30T21:02:00.754Z,11.03
2023-03-30T21:04:29.674Z,13.17
2023-03-30T21:06:58.587Z,11.17
2023-03-30T21:09:29.529Z,11.33
2023-03-30T21:11:58.160Z,11.47
2023-03-30T21:14:27.385Z,10.60
2023-03-30T21:16:56.039Z,12.10
2023-03-30T21:19:26.806Z,10.87
2023-03-30T21:21:55.597Z,11.70
2023-03-30T21:24:24.292Z,11.67
2023-03-30T21:26:54.289Z,12.67
2023-03-30T21:29:23.662Z,10.67
2023-03-30T21:31:52.286Z,13.30
2023-03-30T21:34:22.201Z,12.00
2023-03-30T21:36:50.911Z,13.73
2023-03-30T21:39:19.526Z,11.57
2023-03-30T21:41:48.159Z,12.13
2023-03-30T21:44:18.121Z,11.40
2023-03-30T21:46:46.713Z,15.10
2023-03-30T21:49:16.140Z,11.67
2023-03-30T21:51:44.787Z,13.00
2023-03-30T21:54:14.031Z,12.97
2023-03-30T21:56:42.760Z,13.67
2023-03-30T21:59:11.430Z,11.80
2023-03-30T22:01:42.275Z,14.50
2023-03-30T22:04:11.026Z,11.07
2023-03-30T22:06:39.760Z,14.43
2023-03-30T22:09:08.385Z,11.77
2023-03-30T22:11:37.067Z,13.50
2023-03-30T22:14:06.705Z,11.93
2023-03-30T22:16:36.760Z,12.00
2023-03-30T22:19:06.864Z,12.20
2023-03-30T22:21:35.645Z,11.63
2023-03-30T22:24:06.040Z,11.93
2023-03-30T22:26:36.249Z,11.80
2023-03-30T22:29:05.499Z,11.03
2023-03-30T22:31:34.397Z,11.23
2023-03-30T22:34:04.048Z,11.67
2023-03-30T22:36:34.424Z,13.83
2023-03-30T22:39:04.130Z,10.90
2023-03-30T22:41:33.046Z,12.23
2023-03-30T22:44:01.683Z,10.70
2023-03-30T22:46:31.331Z,13.37
2023-03-30T22:49:03.422Z,11.80
2023-03-30T22:51:38.244Z,10.50
2023-03-30T22:54:07.012Z,12.60
2023-03-30T22:56:35.721Z,10.97
2023-03-30T22:59:04.366Z,10.20
2023-03-30T23:01:33.104Z,11.33
2023-03-30T23:04:02.005Z,11.13
2023-03-30T23:06:31.223Z,10.67
2023-03-30T23:09:02.707Z,10.77
2023-03-30T23:11:31.607Z,10.40
2023-03-30T23:14:05.060Z,9.73
2023-03-30T23:16:35.617Z,10.63
2023-03-30T23:19:04.999Z,11.20
2023-03-30T23:21:35.829Z,10.47
2023-03-30T23:24:08.032Z,11.43
2023-03-30T23:26:36.720Z,10.97
2023-03-30T23:29:06.042Z,9.90
2023-03-30T23:31:35.662Z,10.77
2023-03-30T23:34:04.418Z,9.70
2023-03-30T23:36:33.136Z,10.97
2023-03-30T23:39:01.886Z,10.77
2023-03-30T23:41:32.093Z,11.40
2023-03-30T23:44:00.798Z,11.40
2023-03-30T23:46:29.833Z,10.30
2023-03-30T23:48:58.498Z,9.60
2023-03-30T23:51:27.078Z,10.93
2023-03-30T23:53:56.815Z,10.27
2023-03-30T23:56:27.708Z,9.93
2023-03-30T23:58:59.170Z,10.50
